Time;durP1;ratioP1;P1;durP2;ratioP2;P2;SDS_P1;SDS_P2;PMS_P1;PMS_P2;Temp;Humidity;BMP_temperature;BMP_pressure;BME280_temperature;BME280_humidity;BME280_pressure;Samples;Min_cycle;Max_cycle;Signal;HPM_P1;HPM_P2
2022/12/27 00:02:03;;;;;;;2.97;2.67;;;;;;;;;;4941176;28;20082;-78
2022/12/27 00:04:29;;;;;;;2.53;2.27;;;;;;;;;;4957310;28;20185;-77
2022/12/27 00:06:55;;;;;;;2.73;2.23;;;;;;;;;;4943854;28;20078;-77
2022/12/27 00:09:20;;;;;;;5.90;2.60;;;;;;;;;;4984325;28;20046;-78
2022/12/27 00:11:47;;;;;;;3.23;2.33;;;;;;;;;;4954362;28;20439;-77
2022/12/27 00:14:12;;;;;;;4.07;2.60;;;;;;;;;;4971443;28;20035;-76
2022/12/27 00:16:39;;;;;;;2.63;2.40;;;;;;;;;;4971126;28;20061;-79
2022/12/27 00:19:05;;;;;;;3.97;2.40;;;;;;;;;;4971470;28;20054;-79
2022/12/27 00:21:31;;;;;;;3.87;2.87;;;;;;;;;;4966863;28;20051;-78
2022/12/27 00:23:58;;;;;;;5.93;2.80;;;;;;;;;;4957660;28;20080;-78
2022/12/27 00:26:28;;;;;;;3.93;2.50;;;;;;;;;;4973934;28;20039;-77
2022/12/27 00:28:54;;;;;;;3.92;2.90;;;;;;;;;;4976285;28;20046;-77
2022/12/27 00:31:20;;;;;;;3.90;3.10;;;;;;;;;;4955958;28;20440;-77
2022/12/27 00:33:47;;;;;;;4.80;3.27;;;;;;;;;;4972235;28;20070;-75
2022/12/27 00:36:17;;;;;;;5.43;2.90;;;;;;;;;;4959991;28;20469;-78
2022/12/27 00:38:43;;;;;;;4.28;3.10;;;;;;;;;;4961597;28;20365;-78
2022/12/27 00:41:09;;;;;;;4.63;2.97;;;;;;;;;;4960623;28;20034;-77
2022/12/27 00:43:35;;;;;;;6.27;3.10;;;;;;;;;;4974847;28;20039;-78
2022/12/27 00:46:01;;;;;;;3.20;2.80;;;;;;;;;;4974896;28;20053;-78
2022/12/27 00:48:26;;;;;;;3.90;2.63;;;;;;;;;;4957879;28;20469;-76
2022/12/27 00:50:56;;;;;;;4.13;2.70;;;;;;;;;;4955891;28;20050;-75
2022/12/27 00:53:22;;;;;;;3.97;2.30;;;;;;;;;;4955649;28;20038;-76
2022/12/27 00:55:47;;;;;;;2.53;2.33;;;;;;;;;;4971675;28;20054;-76
2022/12/27 00:58:13;;;;;;;3.47;2.77;;;;;;;;;;4972692;28;20043;-75
2022/12/27 01:00:39;;;;;;;2.60;2.37;;;;;;;;;;4953991;28;20042;-75
2022/12/27 01:03:07;;;;;;;2.97;2.67;;;;;;;;;;4954727;28;20066;-76
2022/12/27 01:05:35;;;;;;;3.13;2.57;;;;;;;;;;4954781;28;20134;-75
2022/12/27 01:08:01;;;;;;;4.60;3.10;;;;;;;;;;4954397;28;20125;-76
2022/12/27 01:10:26;;;;;;;4.47;3.30;;;;;;;;;;4969746;28;20133;-76
2022/12/27 01:12:52;;;;;;;5.63;3.10;;;;;;;;;;4970375;28;20042;-76
2022/12/27 01:15:18;;;;;;;4.37;3.07;;;;;;;;;;4940398;28;20453;-76
2022/12/27 01:17:43;;;;;;;5.43;3.27;;;;;;;;;;4972308;28;20045;-76
2022/12/27 01:20:09;;;;;;;3.50;2.70;;;;;;;;;;4956664;28;20031;-76
2022/12/27 01:22:34;;;;;;;5.47;3.03;;;;;;;;;;4955373;28;20042;-76
2022/12/27 01:25:00;;;;;;;2.93;2.67;;;;;;;;;;4970378;28;20043;-75
2022/12/27 01:27:25;;;;;;;4.40;3.03;;;;;;;;;;4953528;28;20042;-76
2022/12/27 01:29:51;;;;;;;4.23;2.70;;;;;;;;;;4969745;28;20034;-76
2022/12/27 01:32:16;;;;;;;4.23;2.63;;;;;;;;;;4937673;28;20039;-76
2022/12/27 01:34:42;;;;;;;7.20;2.73;;;;;;;;;;4953908;28;20081;-76
2022/12/27 01:37:07;;;;;;;3.60;3.10;;;;;;;;;;4953584;28;20038;-75
2022/12/27 01:39:33;;;;;;;5.73;2.80;;;;;;;;;;4971667;28;20040;-76
2022/12/27 01:44:48;;;;;;;2.73;2.53;;;;;;;;;;4972938;28;20062;-76
2022/12/27 01:47:13;;;;;;;;;;;;;;;;;;4972215;28;20035;-75
2022/12/27 01:49:41;;;;;;;2.73;2.30;;;;;;;;;;4939634;28;19980;-75
2022/12/27 01:52:08;;;;;;;3.10;2.50;;;;;;;;;;4972450;28;20065;-75
2022/12/27 01:54:34;;;;;;;4.27;2.53;;;;;;;;;;4972972;28;20053;-74
2022/12/27 01:57:00;;;;;;;3.23;2.50;;;;;;;;;;4944308;28;20042;-75
2022/12/27 01:59:25;;;;;;;3.07;2.50;;;;;;;;;;4959722;28;20035;-75
2022/12/27 02:01:51;;;;;;;3.67;2.77;;;;;;;;;;4943355;28;20545;-75
2022/12/27 02:04:18;;;;;;;4.50;2.70;;;;;;;;;;4975768;28;20567;-76
2022/12/27 02:06:44;;;;;;;2.93;2.63;;;;;;;;;;4959748;28;20053;-75
2022/12/27 02:09:18;;;;;;;4.43;2.77;;;;;;;;;;4977862;28;20046;-76
2022/12/27 02:11:51;;;;;;;3.30;2.87;;;;;;;;;;4961161;28;20030;-75
2022/12/27 02:14:37;;;;;;;4.97;2.80;;;;;;;;;;4976479;28;20038;-77
2022/12/27 02:17:05;;;;;;;3.63;2.80;;;;;;;;;;4960172;28;20409;-76
2022/12/27 02:19:40;;;;;;;4.13;2.67;;;;;;;;;;4976650;28;20030;-77
2022/12/27 02:22:18;;;;;;;5.30;3.70;;;;;;;;;;4943755;28;20170;-77
2022/12/27 02:24:52;;;;;;;4.67;3.37;;;;;;;;;;4975451;28;20093;-77
2022/12/27 02:27:20;;;;;;;4.27;3.00;;;;;;;;;;4959156;28;20495;-77
2022/12/27 02:29:52;;;;;;;6.43;3.43;;;;;;;;;;4959067;28;20122;-77
2022/12/27 02:32:36;;;;;;;6.23;3.50;;;;;;;;;;4975192;28;20528;-76
2022/12/27 02:35:11;;;;;;;5.73;3.70;;;;;;;;;;4974571;28;20464;-76
2022/12/27 02:37:40;;;;;;;4.30;3.30;;;;;;;;;;4958626;28;20039;-76
2022/12/27 02:54:27;;;;;;;7.47;4.60;;;;;;;;;;4975198;28;20037;-76
2022/12/27 02:57:08;;;;;;;6.07;4.70;;;;;;;;;;4959443;28;20042;-75
2022/12/27 02:59:34;;;;;;;;;;;;;;;;;;4976338;28;20121;-76
2022/12/27 03:04:52;;;;;;;5.53;3.80;;;;;;;;;;4975775;28;20039;-73
2022/12/27 03:07:18;;;;;;;5.53;4.07;;;;;;;;;;4973068;28;20046;-77
2022/12/27 03:18:17;;;;;;;6.00;3.80;;;;;;;;;;4957107;28;20080;-74
2022/12/27 03:26:16;;;;;;;5.07;4.10;;;;;;;;;;4975875;28;20047;-75
2022/12/27 03:34:31;;;;;;;5.40;3.77;;;;;;;;;;4973492;28;20038;-77
2022/12/27 03:39:51;;;;;;;6.43;3.43;;;;;;;;;;4974125;28;20039;-75
2022/12/27 03:45:05;;;;;;;6.07;4.20;;;;;;;;;;4956058;28;20045;-74
2022/12/27 03:47:52;;;;;;;6.00;4.10;;;;;;;;;;4972720;28;20035;-74
2022/12/27 03:50:17;;;;;;;7.27;4.40;;;;;;;;;;4972032;28;20074;-75
2022/12/27 03:52:47;;;;;;;4.80;3.43;;;;;;;;;;4956468;28;20046;-75
2022/12/27 03:55:13;;;;;;;5.20;3.87;;;;;;;;;;4975107;28;20487;-81
2022/12/27 03:57:39;;;;;;;8.00;4.20;;;;;;;;;;4958458;28;20294;-80
2022/12/27 04:00:05;;;;;;;5.53;4.17;;;;;;;;;;4976006;28;20046;-81
2022/12/27 04:02:39;;;;;;;4.93;3.67;;;;;;;;;;4974807;28;20121;-78
2022/12/27 04:05:04;;;;;;;6.03;4.10;;;;;;;;;;4961546;28;20083;-76
2022/12/27 04:07:30;;;;;;;5.13;4.03;;;;;;;;;;4976497;28;20035;-77
2022/12/27 04:34:42;;;;;;;7.37;3.87;;;;;;;;;;4971811;28;20031;-72
2022/12/27 04:37:12;;;;;;;5.70;3.90;;;;;;;;;;4955758;28;20073;-72
2022/12/27 04:39:38;;;;;;;6.07;3.80;;;;;;;;;;4956023;28;20042;-78
2022/12/27 04:55:51;;;;;;;6.67;4.10;;;;;;;;;;4969345;28;20128;-71
2022/12/27 04:58:17;;;;;;;7.83;4.20;;;;;;;;;;4968707;28;20489;-70
2022/12/27 05:03:26;;;;;;;9.60;5.43;;;;;;;;;;4969024;28;20457;-70
2022/12/27 05:05:52;;;;;;;8.73;5.10;;;;;;;;;;4968986;28;20030;-70
2022/12/27 05:13:58;;;;;;;9.87;5.87;;;;;;;;;;4990587;28;20141;-71
2022/12/27 05:16:28;;;;;;;11.47;5.53;;;;;;;;;;4990824;28;20046;-70
2022/12/27 05:18:54;;;;;;;10.70;5.93;;;;;;;;;;4958314;28;20030;-71
2022/12/27 05:21:20;;;;;;;8.13;5.37;;;;;;;;;;4971062;28;20118;-71
2022/12/27 05:26:30;;;;;;;8.53;4.70;;;;;;;;;;4989989;28;20034;-71
2022/12/27 05:28:57;;;;;;;7.87;4.57;;;;;;;;;;4973926;28;20104;-72
2022/12/27 05:31:24;;;;;;;8.47;5.43;;;;;;;;;;4958926;28;20345;-71
2022/12/27 05:33:50;;;;;;;8.83;4.67;;;;;;;;;;4994097;28;20056;-71
2022/12/27 05:36:15;;;;;;;6.87;4.80;;;;;;;;;;4978510;28;20034;-71
2022/12/27 05:38:41;;;;;;;12.83;5.47;;;;;;;;;;4994511;28;20460;-71
2022/12/27 05:41:06;;;;;;;12.37;5.17;;;;;;;;;;4974721;28;20034;-71
2022/12/27 05:43:32;;;;;;;7.40;4.63;;;;;;;;;;4951868;28;20050;-71
2022/12/27 05:46:05;;;;;;;9.90;5.50;;;;;;;;;;4985331;28;20034;-71
2022/12/27 05:48:31;;;;;;;8.83;4.87;;;;;;;;;;4966488;28;20035;-70
2022/12/27 05:50:57;;;;;;;7.13;5.07;;;;;;;;;;4975796;28;20448;-71
2022/12/27 05:53:22;;;;;;;8.03;4.80;;;;;;;;;;4975839;28;20038;-71
2022/12/27 05:55:55;;;;;;;5.07;4.20;;;;;;;;;;4959610;28;20118;-72
2022/12/27 05:58:20;;;;;;;6.87;4.77;;;;;;;;;;4943704;28;20146;-71
2022/12/27 06:00:46;;;;;;;6.30;4.63;;;;;;;;;;4975837;28;20083;-71
2022/12/27 06:03:12;;;;;;;8.60;4.77;;;;;;;;;;4976478;28;20054;-71
2022/12/27 06:05:37;;;;;;;9.20;5.50;;;;;;;;;;4967581;28;20031;-72
2022/12/27 06:08:03;;;;;;;7.70;5.07;;;;;;;;;;4952746;28;20031;-70
2022/12/27 06:10:29;;;;;;;9.10;5.30;;;;;;;;;;4982262;28;20038;-70
2022/12/27 06:12:54;;;;;;;7.87;5.20;;;;;;;;;;4951696;28;20035;-73
2022/12/27 06:15:20;;;;;;;8.43;4.70;;;;;;;;;;4966592;28;20151;-71
2022/12/27 06:17:45;;;;;;;8.13;5.37;;;;;;;;;;4983144;28;20034;-70
2022/12/27 06:20:11;;;;;;;7.80;5.03;;;;;;;;;;4968307;28;20492;-71
2022/12/27 06:22:36;;;;;;;8.47;5.27;;;;;;;;;;4983820;28;20135;-70
2022/12/27 06:25:02;;;;;;;11.37;5.83;;;;;;;;;;4985284;28;20030;-73
2022/12/27 06:27:28;;;;;;;9.13;5.53;;;;;;;;;;4983719;28;20030;-72
2022/12/27 06:29:54;;;;;;;8.77;5.50;;;;;;;;;;4984242;28;20033;-70
2022/12/27 06:32:20;;;;;;;8.83;5.70;;;;;;;;;;4968627;28;20480;-70
2022/12/27 06:34:45;;;;;;;9.10;5.17;;;;;;;;;;4983837;28;20039;-72
2022/12/27 06:37:11;;;;;;;6.90;4.80;;;;;;;;;;4984932;28;20338;-71
2022/12/27 06:39:36;;;;;;;8.00;5.23;;;;;;;;;;4965168;28;20250;-71
2022/12/27 06:42:02;;;;;;;11.57;5.53;;;;;;;;;;4966630;28;20539;-71
2022/12/27 06:44:27;;;;;;;10.67;5.03;;;;;;;;;;4981960;28;20369;-71
2022/12/27 06:46:53;;;;;;;8.20;5.23;;;;;;;;;;4984120;28;20042;-72
2022/12/27 06:49:18;;;;;;;9.63;5.27;;;;;;;;;;4950926;28;20141;-71
2022/12/27 06:51:44;;;;;;;20.77;5.83;;;;;;;;;;4982075;28;20035;-71
2022/12/27 06:54:09;;;;;;;5.63;4.40;;;;;;;;;;4955303;28;20035;-72
2022/12/27 06:56:35;;;;;;;8.43;5.07;;;;;;;;;;4983183;28;20038;-70
2022/12/27 06:59:01;;;;;;;7.73;5.40;;;;;;;;;;4967562;28;20125;-71
2022/12/27 07:01:26;;;;;;;8.40;4.67;;;;;;;;;;4982568;28;20094;-70
2022/12/27 07:03:56;;;;;;;11.53;5.33;;;;;;;;;;4983122;28;20022;-71
2022/12/27 07:06:22;;;;;;;8.03;5.00;;;;;;;;;;4983849;28;20121;-70
2022/12/27 07:08:48;;;;;;;7.67;5.50;;;;;;;;;;4982242;28;20121;-70
2022/12/27 07:11:15;;;;;;;7.97;4.80;;;;;;;;;;4967321;28;20030;-72
2022/12/27 07:13:42;;;;;;;9.77;5.97;;;;;;;;;;4983958;28;20069;-73
2022/12/27 07:16:09;;;;;;;6.97;4.40;;;;;;;;;;4965367;28;20039;-73
2022/12/27 07:18:38;;;;;;;10.40;5.23;;;;;;;;;;4970394;28;20062;-74
2022/12/27 07:21:07;;;;;;;7.23;4.70;;;;;;;;;;4965190;28;20938;-74
2022/12/27 07:23:33;;;;;;;5.23;4.40;;;;;;;;;;4966933;28;20420;-73
2022/12/27 07:26:03;;;;;;;7.47;5.13;;;;;;;;;;4950479;28;20026;-71
2022/12/27 07:28:29;;;;;;;5.77;4.47;;;;;;;;;;4981396;28;20035;-73
2022/12/27 07:30:54;;;;;;;10.03;4.87;;;;;;;;;;4966487;28;20352;-73
2022/12/27 07:33:20;;;;;;;6.23;4.53;;;;;;;;;;4967216;28;20030;-71
2022/12/27 07:35:46;;;;;;;11.43;5.17;;;;;;;;;;4967360;28;20706;-72
2022/12/27 07:38:11;;;;;;;10.70;5.27;;;;;;;;;;4983341;28;20448;-72
2022/12/27 07:40:37;;;;;;;8.73;4.77;;;;;;;;;;4934564;28;20034;-72
2022/12/27 07:43:03;;;;;;;10.10;5.20;;;;;;;;;;4965487;28;20050;-72
2022/12/27 07:45:28;;;;;;;8.23;4.57;;;;;;;;;;4950744;28;20060;-73
2022/12/27 07:47:54;;;;;;;7.27;4.63;;;;;;;;;;4959186;28;20552;-73
2022/12/27 07:50:20;;;;;;;6.80;4.20;;;;;;;;;;4956144;28;20054;-73
2022/12/27 07:52:45;;;;;;;6.27;4.37;;;;;;;;;;4957440;28;20038;-73
2022/12/27 07:55:11;;;;;;;7.37;4.60;;;;;;;;;;4959905;28;20022;-72
2022/12/27 07:57:38;;;;;;;5.80;4.37;;;;;;;;;;4957270;28;20556;-74
2022/12/27 08:00:04;;;;;;;6.83;4.53;;;;;;;;;;4992184;28;20055;-73
2022/12/27 08:02:37;;;;;;;8.73;4.60;;;;;;;;;;4977725;28;20053;-72
2022/12/27 08:05:04;;;;;;;6.80;4.10;;;;;;;;;;4975440;28;20034;-72
2022/12/27 08:07:29;;;;;;;7.00;4.60;;;;;;;;;;4975795;28;20042;-73
2022/12/27 08:09:55;;;;;;;5.83;4.70;;;;;;;;;;4976820;28;20110;-72
2022/12/27 08:12:21;;;;;;;5.83;4.03;;;;;;;;;;4976609;28;20072;-73
2022/12/27 08:14:46;;;;;;;7.20;4.50;;;;;;;;;;4976709;28;20539;-73
2022/12/27 08:17:19;;;;;;;8.30;4.70;;;;;;;;;;4976593;28;20074;-74
2022/12/27 08:19:45;;;;;;;8.93;4.77;;;;;;;;;;4976649;28;20040;-74
2022/12/27 08:22:11;;;;;;;6.93;4.70;;;;;;;;;;4992340;28;20133;-72
2022/12/27 08:24:39;;;;;;;7.67;5.10;;;;;;;;;;4947114;28;20452;-72
2022/12/27 08:27:05;;;;;;;5.17;3.77;;;;;;;;;;4964348;28;20034;-72
2022/12/27 08:29:31;;;;;;;6.23;4.40;;;;;;;;;;4950302;28;20105;-72
2022/12/27 08:31:56;;;;;;;6.40;4.57;;;;;;;;;;4980768;28;20031;-72
2022/12/27 08:34:22;;;;;;;7.87;4.47;;;;;;;;;;4964713;28;20121;-73
2022/12/27 08:36:49;;;;;;;5.50;3.83;;;;;;;;;;4950366;28;20092;-73
2022/12/27 08:39:15;;;;;;;11.87;4.63;;;;;;;;;;4980821;28;20039;-73
2022/12/27 08:41:41;;;;;;;5.80;4.40;;;;;;;;;;4964759;28;20099;-72
2022/12/27 08:44:07;;;;;;;7.50;3.93;;;;;;;;;;4963494;28;20026;-73
2022/12/27 08:46:33;;;;;;;7.23;4.60;;;;;;;;;;4943040;28;20038;-73
2022/12/27 08:48:59;;;;;;;7.07;4.30;;;;;;;;;;4964967;28;20034;-74
2022/12/27 08:51:25;;;;;;;6.63;4.43;;;;;;;;;;4959638;28;20034;-73
2022/12/27 08:53:50;;;;;;;11.47;4.87;;;;;;;;;;4956149;28;20346;-74
2022/12/27 08:56:18;;;;;;;6.30;4.57;;;;;;;;;;4956793;28;20039;-73
2022/12/27 08:58:43;;;;;;;9.37;4.53;;;;;;;;;;4955928;28;20440;-74
2022/12/27 09:01:09;;;;;;;8.43;5.13;;;;;;;;;;4957946;28;20352;-74
2022/12/27 09:03:35;;;;;;;7.20;4.50;;;;;;;;;;4948397;28;20105;-74
2022/12/27 09:06:14;;;;;;;5.77;4.37;;;;;;;;;;4962724;28;20130;-74
2022/12/27 09:08:40;;;;;;;6.90;5.07;;;;;;;;;;4979923;28;20357;-73
2022/12/27 09:11:10;;;;;;;10.30;5.10;;;;;;;;;;4963168;28;20058;-74
2022/12/27 09:13:36;;;;;;;9.30;4.83;;;;;;;;;;4961935;28;20517;-76
2022/12/27 09:16:06;;;;;;;7.57;5.17;;;;;;;;;;4955181;28;20046;-74
2022/12/27 09:18:32;;;;;;;10.30;5.20;;;;;;;;;;4971513;28;20105;-74
2022/12/27 09:21:02;;;;;;;8.33;5.37;;;;;;;;;;4960521;28;20034;-74
2022/12/27 09:23:29;;;;;;;7.90;4.93;;;;;;;;;;4978372;28;20058;-74
2022/12/27 09:25:54;;;;;;;9.33;5.20;;;;;;;;;;4963409;28;20414;-73
2022/12/27 09:28:20;;;;;;;10.43;4.83;;;;;;;;;;4945536;28;20046;-75
2022/12/27 09:30:45;;;;;;;8.40;5.10;;;;;;;;;;4979307;28;20106;-74
2022/12/27 09:33:12;;;;;;;7.33;4.70;;;;;;;;;;4979886;28;20148;-74
2022/12/27 09:35:38;;;;;;;8.60;5.37;;;;;;;;;;4949036;28;20121;-73
2022/12/27 09:38:04;;;;;;;7.07;5.20;;;;;;;;;;4945573;28;20384;-73
2022/12/27 09:40:30;;;;;;;10.07;5.37;;;;;;;;;;4939339;28;20121;-73
2022/12/27 09:43:03;;;;;;;7.93;5.10;;;;;;;;;;4939356;28;20149;-74
2022/12/27 09:45:43;;;;;;;10.87;5.13;;;;;;;;;;4960175;28;20341;-73
2022/12/27 09:48:09;;;;;;;7.27;5.00;;;;;;;;;;4947907;28;20060;-74
2022/12/27 09:50:40;;;;;;;8.87;5.43;;;;;;;;;;4946873;28;20481;-73
2022/12/27 09:53:16;;;;;;;6.80;5.10;;;;;;;;;;4974470;28;20129;-73
2022/12/27 09:55:52;;;;;;;7.67;5.27;;;;;;;;;;4974967;28;20550;-74
2022/12/27 09:58:33;;;;;;;6.60;4.83;;;;;;;;;;4977861;28;20484;-73
2022/12/27 10:00:58;;;;;;;;;;;;;;;;;;4962746;28;20115;-74
2022/12/27 10:03:25;;;;;;;7.70;4.50;;;;;;;;;;4965023;28;20371;-73
2022/12/27 10:05:53;;;;;;;8.60;5.13;;;;;;;;;;4976943;28;20377;-75
2022/12/27 10:08:25;;;;;;;11.30;5.60;;;;;;;;;;4962776;28;20108;-73
2022/12/27 10:10:50;;;;;;;8.77;5.10;;;;;;;;;;4975460;28;20045;-75
2022/12/27 10:13:25;;;;;;;9.93;5.40;;;;;;;;;;4978092;28;20038;-73
2022/12/27 10:16:06;;;;;;;9.40;5.60;;;;;;;;;;4964038;28;20097;-75
2022/12/27 10:18:52;;;;;;;9.70;5.70;;;;;;;;;;4947342;28;20050;-74
2022/12/27 10:21:22;;;;;;;11.03;6.33;;;;;;;;;;4965535;28;20035;-74
2022/12/27 10:23:53;;;;;;;8.52;5.45;;;;;;;;;;4966028;28;20392;-74
2022/12/27 10:26:19;;;;;;;10.68;5.65;;;;;;;;;;4983572;28;20100;-73
2022/12/27 10:28:46;;;;;;;7.93;5.43;;;;;;;;;;4951064;28;20495;-73
2022/12/27 10:31:13;;;;;;;8.07;5.07;;;;;;;;;;4952162;28;20046;-73
2022/12/27 10:33:39;;;;;;;7.43;5.03;;;;;;;;;;4968461;28;20629;-74
2022/12/27 10:36:11;;;;;;;9.17;6.00;;;;;;;;;;4952328;28;20041;-74
2022/12/27 10:38:37;;;;;;;13.53;6.70;;;;;;;;;;4964826;28;20049;-74
2022/12/27 10:41:20;;;;;;;11.03;6.27;;;;;;;;;;4965780;28;20037;-74
2022/12/27 10:43:49;;;;;;;14.10;6.40;;;;;;;;;;4967723;28;20249;-75
2022/12/27 10:46:18;;;;;;;13.93;6.47;;;;;;;;;;4963992;28;20049;-74
2022/12/27 10:48:57;;;;;;;11.57;6.30;;;;;;;;;;4979163;28;20034;-76
2022/12/27 10:51:24;;;;;;;10.57;6.37;;;;;;;;;;4948641;28;20073;-77
2022/12/27 10:53:49;;;;;;;11.03;6.77;;;;;;;;;;4947606;28;20036;-78
2022/12/27 10:56:25;;;;;;;9.40;6.10;;;;;;;;;;4950818;28;20035;-76
2022/12/27 10:58:52;;;;;;;17.90;6.70;;;;;;;;;;4965535;28;20035;-75
2022/12/27 11:01:24;;;;;;;10.63;6.27;;;;;;;;;;4982344;28;20166;-75
2022/12/27 11:04:07;;;;;;;12.00;6.50;;;;;;;;;;4965579;28;20047;-75
2022/12/27 11:06:33;;;;;;;11.60;6.43;;;;;;;;;;4985217;28;20034;-76
2022/12/27 11:09:16;;;;;;;12.53;6.20;;;;;;;;;;4966438;28;20022;-76
2022/12/27 11:11:42;;;;;;;13.00;6.40;;;;;;;;;;4948238;28;20039;-75
2022/12/27 11:14:09;;;;;;;13.40;7.30;;;;;;;;;;4974368;28;20061;-75
2022/12/27 11:16:36;;;;;;;11.63;6.80;;;;;;;;;;4981159;28;20057;-75
2022/12/27 11:19:02;;;;;;;10.80;6.93;;;;;;;;;;4945050;28;20034;-75
2022/12/27 11:21:28;;;;;;;12.93;7.43;;;;;;;;;;4984115;28;20456;-76
2022/12/27 11:24:01;;;;;;;12.03;6.23;;;;;;;;;;4964479;28;20065;-75
2022/12/27 11:26:40;;;;;;;11.23;7.17;;;;;;;;;;4980395;28;20417;-76
2022/12/27 11:29:12;;;;;;;13.50;7.73;;;;;;;;;;4958836;28;20117;-76
2022/12/27 11:31:40;;;;;;;13.73;7.43;;;;;;;;;;4966333;28;20022;-76
2022/12/27 11:34:12;;;;;;;15.37;7.53;;;;;;;;;;4949665;28;20066;-77
2022/12/27 11:36:40;;;;;;;11.60;6.37;;;;;;;;;;4981131;28;20034;-76
2022/12/27 11:39:06;;;;;;;13.10;6.70;;;;;;;;;;4981881;28;20324;-76
2022/12/27 11:41:32;;;;;;;11.70;7.23;;;;;;;;;;4947883;28;20433;-76
2022/12/27 11:44:01;;;;;;;13.07;7.23;;;;;;;;;;4941556;28;20051;-76
2022/12/27 11:46:30;;;;;;;12.73;7.53;;;;;;;;;;4940245;28;20068;-77
2022/12/27 11:48:57;;;;;;;12.27;7.33;;;;;;;;;;4959123;28;20096;-76
2022/12/27 11:51:41;;;;;;;15.90;7.40;;;;;;;;;;4965489;28;20054;-77
2022/12/27 11:54:31;;;;;;;11.20;6.67;;;;;;;;;;4964682;28;20062;-76
2022/12/27 11:57:12;;;;;;;11.63;6.60;;;;;;;;;;4967282;28;20096;-76
2022/12/27 11:59:50;;;;;;;11.48;6.60;;;;;;;;;;4971458;28;20317;-76
2022/12/27 12:02:26;;;;;;;14.67;7.50;;;;;;;;;;4946113;28;20035;-77
2022/12/27 12:04:52;;;;;;;14.47;7.60;;;;;;;;;;4959872;28;20034;-78
2022/12/27 12:07:21;;;;;;;11.60;7.43;;;;;;;;;;4950501;28;20030;-76
2022/12/27 12:10:02;;;;;;;11.57;7.03;;;;;;;;;;4964260;28;20042;-75
2022/12/27 12:12:30;;;;;;;12.50;6.97;;;;;;;;;;4978520;28;20042;-76
2022/12/27 12:15:16;;;;;;;15.70;7.97;;;;;;;;;;4965905;28;20038;-76
2022/12/27 12:17:42;;;;;;;14.53;6.80;;;;;;;;;;4964004;28;20035;-76
2022/12/27 12:20:26;;;;;;;11.53;6.93;;;;;;;;;;4949777;28;20042;-76
2022/12/27 12:23:01;;;;;;;11.30;6.53;;;;;;;;;;4971262;28;20081;-75
2022/12/27 12:25:39;;;;;;;15.37;7.57;;;;;;;;;;4951183;28;20049;-76
2022/12/27 12:28:23;;;;;;;15.10;7.33;;;;;;;;;;4958741;28;20501;-75
2022/12/27 12:31:01;;;;;;;12.50;7.13;;;;;;;;;;4942199;28;20106;-75
2022/12/27 12:33:39;;;;;;;15.73;7.97;;;;;;;;;;4941941;28;20109;-75
2022/12/27 12:36:17;;;;;;;15.17;7.47;;;;;;;;;;4958491;28;20038;-76
2022/12/27 12:39:12;;;;;;;18.60;7.20;;;;;;;;;;4958710;28;20042;-77
2022/12/27 12:41:53;;;;;;;15.20;7.67;;;;;;;;;;4957705;28;20056;-77
2022/12/27 12:44:38;;;;;;;11.95;6.35;;;;;;;;;;4961989;28;20052;-76
2022/12/27 12:47:24;;;;;;;11.83;6.53;;;;;;;;;;4994307;28;20034;-76
2022/12/27 12:50:16;;;;;;;10.90;6.47;;;;;;;;;;4994475;28;20065;-77
2022/12/27 12:52:42;;;;;;;13.43;6.97;;;;;;;;;;4968363;28;20061;-77
2022/12/27 12:55:26;;;;;;;13.83;7.57;;;;;;;;;;4992039;28;20034;-75
2022/12/27 12:58:19;;;;;;;12.27;7.10;;;;;;;;;;4959481;28;20034;-77
2022/12/27 13:00:45;;;;;;;12.33;6.10;;;;;;;;;;4991539;28;20092;-76
2022/12/27 13:03:29;;;;;;;15.20;6.30;;;;;;;;;;4991327;28;20058;-77
2022/12/27 13:05:56;;;;;;;13.83;5.70;;;;;;;;;;4992910;28;20049;-77
2022/12/27 13:08:28;;;;;;;9.93;5.73;;;;;;;;;;4993764;28;20034;-77
2022/12/27 13:11:07;;;;;;;11.97;6.70;;;;;;;;;;4991112;28;20034;-76
2022/12/27 13:13:42;;;;;;;14.20;7.63;;;;;;;;;;4980017;28;20440;-78
2022/12/27 13:16:12;;;;;;;15.07;7.07;;;;;;;;;;4973998;28;20053;-77
2022/12/27 13:18:37;;;;;;;15.90;7.43;;;;;;;;;;4977619;28;20030;-76
2022/12/27 13:21:23;;;;;;;15.10;7.40;;;;;;;;;;4956099;28;20142;-76
2022/12/27 13:24:02;;;;;;;14.07;7.10;;;;;;;;;;4963840;28;20150;-76
2022/12/27 13:26:33;;;;;;;11.50;6.03;;;;;;;;;;4980211;28;20042;-76
2022/12/27 13:29:05;;;;;;;15.30;7.00;;;;;;;;;;4948119;28;20488;-75
2022/12/27 13:31:51;;;;;;;11.63;6.70;;;;;;;;;;4965525;28;20031;-77
2022/12/27 13:34:32;;;;;;;11.30;6.40;;;;;;;;;;4946601;28;20258;-75
2022/12/27 13:37:11;;;;;;;14.18;6.65;;;;;;;;;;4962830;28;20120;-75
2022/12/27 13:39:55;;;;;;;16.37;7.37;;;;;;;;;;4977586;28;20562;-76
2022/12/27 13:42:33;;;;;;;12.20;6.97;;;;;;;;;;4964424;28;20521;-76
2022/12/27 13:45:14;;;;;;;16.60;7.97;;;;;;;;;;4960945;28;20035;-77
2022/12/27 13:47:54;;;;;;;12.77;7.43;;;;;;;;;;4963661;28;20038;-75
2022/12/27 13:50:26;;;;;;;15.97;7.50;;;;;;;;;;4947415;28;20086;-76
2022/12/27 13:52:54;;;;;;;11.97;6.70;;;;;;;;;;4966950;28;20058;-76
2022/12/27 13:55:39;;;;;;;16.67;8.33;;;;;;;;;;4950297;28;20034;-76
2022/12/27 13:58:40;;;;;;;15.10;7.57;;;;;;;;;;4967734;28;20461;-77
2022/12/27 14:01:05;;;;;;;18.07;8.50;;;;;;;;;;4930774;28;20110;-76
2022/12/27 14:03:50;;;;;;;16.37;8.37;;;;;;;;;;4964103;28;20480;-76
2022/12/27 14:06:15;;;;;;;16.73;7.50;;;;;;;;;;4969552;28;20041;-76
2022/12/27 14:09:00;;;;;;;14.33;7.63;;;;;;;;;;4951183;28;20124;-76
2022/12/27 14:11:31;;;;;;;12.50;6.67;;;;;;;;;;4984451;28;20541;-76
2022/12/27 14:13:58;;;;;;;17.97;9.03;;;;;;;;;;4969976;28;20046;-76
2022/12/27 14:16:34;;;;;;;17.17;8.30;;;;;;;;;;4942936;28;20098;-76
2022/12/27 14:19:05;;;;;;;18.23;8.53;;;;;;;;;;4974642;28;20042;-76
2022/12/27 14:21:31;;;;;;;13.73;7.60;;;;;;;;;;4943302;28;20054;-76
2022/12/27 14:24:15;;;;;;;18.23;8.73;;;;;;;;;;4942880;28;20453;-77
2022/12/27 14:27:02;;;;;;;14.07;6.47;;;;;;;;;;4958785;28;20473;-77
2022/12/27 14:29:40;;;;;;;16.87;7.83;;;;;;;;;;4958376;28;20073;-77
2022/12/27 14:32:24;;;;;;;22.53;9.20;;;;;;;;;;4942966;28;20377;-76
2022/12/27 14:35:09;;;;;;;17.80;8.63;;;;;;;;;;4943004;28;20073;-77
2022/12/27 14:37:55;;;;;;;21.17;7.87;;;;;;;;;;4958162;28;20043;-76
2022/12/27 14:40:21;;;;;;;18.27;8.90;;;;;;;;;;4959052;28;20046;-77
2022/12/27 14:43:06;;;;;;;17.00;8.27;;;;;;;;;;4958592;28;20150;-76
2022/12/27 14:45:50;;;;;;;13.03;7.10;;;;;;;;;;4943024;28;20039;-76
2022/12/27 14:48:31;;;;;;;16.47;7.93;;;;;;;;;;4974147;28;20045;-76
2022/12/27 14:51:06;;;;;;;21.40;9.30;;;;;;;;;;4942667;28;20063;-75
2022/12/27 14:53:32;;;;;;;24.47;9.53;;;;;;;;;;4974936;28;20050;-76
2022/12/27 14:55:57;;;;;;;21.37;9.77;;;;;;;;;;4958490;28;20053;-76
2022/12/27 14:58:30;;;;;;;19.37;9.33;;;;;;;;;;4942138;28;20047;-76
2022/12/27 15:01:02;;;;;;;19.83;8.90;;;;;;;;;;4941850;28;20097;-77
2022/12/27 15:03:36;;;;;;;11.93;6.73;;;;;;;;;;4957458;28;20054;-76
2022/12/27 15:06:36;;;;;;;12.80;6.60;;;;;;;;;;4974422;28;20043;-77
2022/12/27 15:09:04;;;;;;;22.10;8.87;;;;;;;;;;4949987;28;20397;-77
2022/12/27 15:11:42;;;;;;;19.90;9.67;;;;;;;;;;4942426;28;20039;-77
2022/12/27 15:14:23;;;;;;;22.60;9.03;;;;;;;;;;4974196;28;20392;-77
2022/12/27 15:17:07;;;;;;;20.27;9.00;;;;;;;;;;4973987;28;20042;-77
2022/12/27 15:19:52;;;;;;;12.80;6.53;;;;;;;;;;4941572;28;20540;-77
2022/12/27 15:22:21;;;;;;;19.77;9.00;;;;;;;;;;4941663;28;20043;-76
2022/12/27 15:24:52;;;;;;;21.93;9.73;;;;;;;;;;4941324;28;20042;-78
2022/12/27 15:27:25;;;;;;;21.67;9.50;;;;;;;;;;4973175;28;20038;-77
2022/12/27 15:29:51;;;;;;;17.47;8.63;;;;;;;;;;4973720;28;20050;-76
2022/12/27 15:32:35;;;;;;;27.10;10.60;;;;;;;;;;4973929;28;20038;-77
2022/12/27 15:35:20;;;;;;;14.80;6.47;;;;;;;;;;4958752;28;20089;-80
2022/12/27 15:37:45;;;;;;;20.80;10.13;;;;;;;;;;4974708;28;20053;-81
2022/12/27 15:40:30;;;;;;;26.93;11.20;;;;;;;;;;4975314;28;20038;-81
2022/12/27 15:43:00;;;;;;;26.00;10.10;;;;;;;;;;4958560;28;20051;-77
2022/12/27 15:45:31;;;;;;;22.30;8.97;;;;;;;;;;4958792;28;20074;-81
2022/12/27 15:48:16;;;;;;;29.23;10.83;;;;;;;;;;4958500;28;20138;-78
2022/12/27 15:50:51;;;;;;;26.30;10.03;;;;;;;;;;4975406;28;20058;-79
2022/12/27 15:53:16;;;;;;;19.80;8.60;;;;;;;;;;4955404;28;20035;-76
2022/12/27 15:56:01;;;;;;;17.67;6.90;;;;;;;;;;4939032;29;20050;-78
2022/12/27 15:58:27;;;;;;;27.20;10.20;;;;;;;;;;4953928;29;20117;-77
2022/12/27 16:01:11;;;;;;;23.73;8.53;;;;;;;;;;4939095;29;20485;-80
2022/12/27 16:03:38;;;;;;;21.03;9.70;;;;;;;;;;4971353;28;20054;-80
2022/12/27 16:06:06;;;;;;;25.10;10.43;;;;;;;;;;4958102;28;20508;-79
2022/12/27 16:08:33;;;;;;;23.47;9.67;;;;;;;;;;4957568;28;20073;-78
2022/12/27 16:11:00;;;;;;;22.47;9.10;;;;;;;;;;4974774;28;20561;-80
2022/12/27 16:13:31;;;;;;;24.07;9.40;;;;;;;;;;4974201;28;20049;-78
2022/12/27 16:15:57;;;;;;;25.83;9.63;;;;;;;;;;4973162;28;20121;-77
2022/12/27 16:18:22;;;;;;;21.07;9.47;;;;;;;;;;4957971;28;20049;-78
2022/12/27 16:20:58;;;;;;;27.13;10.13;;;;;;;;;;4958315;28;20042;-81
2022/12/27 16:23:25;;;;;;;19.57;8.37;;;;;;;;;;4974352;28;20057;-75
2022/12/27 16:26:03;;;;;;;16.93;8.50;;;;;;;;;;4958826;28;20129;-80
2022/12/27 16:28:29;;;;;;;19.27;8.13;;;;;;;;;;4942115;28;20125;-77
2022/12/27 16:30:56;;;;;;;22.77;9.60;;;;;;;;;;4958925;28;20125;-78
2022/12/27 16:33:25;;;;;;;23.30;10.23;;;;;;;;;;4958548;28;20049;-80